createdAt,value
2017-05-04T00:00:28.430Z,0
2017-05-04T00:01:29.660Z,0
2017-05-04T00:02:30.893Z,0
2017-05-04T00:03:32.168Z,0
2017-05-04T00:04:33.405Z,0
2017-05-04T00:05:34.659Z,0
2017-05-04T00:06:35.879Z,0
2017-05-04T00:07:37.116Z,0
2017-05-04T00:08:38.376Z,0
2017-05-04T00:09:39.625Z,0
2017-05-04T00:10:40.861Z,0
2017-05-04T00:11:42.132Z,0
2017-05-04T00:12:43.453Z,0
2017-05-04T00:13:44.690Z,0
2017-05-04T00:14:46.109Z,0
2017-05-04T00:15:47.347Z,0
2017-05-04T00:16:48.605Z,0
2017-05-04T00:17:49.866Z,0
2017-05-04T00:18:51.132Z,0
2017-05-04T00:19:52.463Z,0
2017-05-04T00:20:53.702Z,0
2017-05-04T00:21:54.943Z,0
2017-05-04T00:22:56.217Z,0
2017-05-04T00:23:57.476Z,0
2017-05-04T00:24:58.719Z,0
2017-05-04T00:25:59.967Z,0
2017-05-04T00:27:01.198Z,0
2017-05-04T00:28:02.458Z,0
2017-05-04T00:29:03.916Z,0
2017-05-04T00:30:05.152Z,0
2017-05-04T00:31:06.516Z,0
2017-05-04T00:32:07.755Z,0
2017-05-04T00:33:08.996Z,0
2017-05-04T00:34:10.260Z,0
2017-05-04T00:35:11.502Z,0
2017-05-04T00:36:12.743Z,0
2017-05-04T00:37:13.994Z,0
2017-05-04T00:38:15.202Z,0
2017-05-04T00:39:16.480Z,0
2017-05-04T00:40:17.736Z,0
2017-05-04T00:41:18.979Z,0
2017-05-04T00:42:20.309Z,0
2017-05-04T00:43:21.885Z,0
2017-05-04T00:44:23.129Z,0
2017-05-04T00:45:24.362Z,0
2017-05-04T00:46:25.604Z,0
2017-05-04T00:47:26.842Z,0
2017-05-04T00:48:28.085Z,0
2017-05-04T00:49:29.318Z,0
2017-05-04T00:50:30.566Z,0
2017-05-04T00:51:31.965Z,0
2017-05-04T00:52:33.123Z,0
2017-05-04T00:53:34.430Z,0
2017-05-04T00:54:35.742Z,0
2017-05-04T00:55:36.981Z,0
2017-05-04T00:56:38.244Z,0
2017-05-04T00:57:39.499Z,0
2017-05-04T00:58:40.733Z,0
2017-05-04T00:59:42.013Z,0
2017-05-04T01:00:43.280Z,0
2017-05-04T01:01:44.589Z,0
2017-05-04T01:02:45.850Z,0
2017-05-04T01:03:47.089Z,0
2017-05-04T01:04:48.330Z,0
2017-05-04T01:05:49.826Z,0
2017-05-04T01:06:51.072Z,0
2017-05-04T01:07:52.317Z,0
2017-05-04T01:08:53.582Z,0
2017-05-04T01:09:54.789Z,0
2017-05-04T01:10:56.066Z,0
2017-05-04T01:11:57.303Z,0
2017-05-04T01:12:58.642Z,0
2017-05-04T01:13:59.952Z,0
2017-05-04T01:15:01.166Z,0
2017-05-04T01:16:02.401Z,0
2017-05-04T01:17:03.685Z,0
2017-05-04T01:18:04.904Z,0
2017-05-04T01:19:06.156Z,0
2017-05-04T01:20:07.420Z,0
2017-05-04T01:21:08.638Z,0
2017-05-04T01:22:09.871Z,0
2017-05-04T01:23:11.119Z,0
2017-05-04T01:24:12.376Z,0
2017-05-04T01:25:13.627Z,0
2017-05-04T01:26:14.899Z,0
2017-05-04T01:27:16.149Z,0
2017-05-04T01:28:17.389Z,0
2017-05-04T01:29:18.701Z,0
2017-05-04T01:30:19.946Z,0
2017-05-04T01:31:21.311Z,0
2017-05-04T01:32:22.579Z,0
2017-05-04T01:33:23.971Z,0
2017-05-04T01:34:25.232Z,0
2017-05-04T01:35:26.473Z,0
2017-05-04T01:36:27.709Z,0
2017-05-04T01:37:28.969Z,0
2017-05-04T01:38:30.281Z,0
2017-05-04T01:39:31.485Z,0
2017-05-04T01:40:32.722Z,0
2017-05-04T01:41:33.978Z,0
2017-05-04T01:42:35.212Z,0
2017-05-04T01:43:36.455Z,0
2017-05-04T01:44:37.693Z,0
2017-05-04T01:45:38.933Z,0
2017-05-04T01:46:40.209Z,0
2017-05-04T01:47:41.449Z,0
2017-05-04T01:48:42.693Z,0
2017-05-04T01:49:43.977Z,0
2017-05-04T01:50:45.226Z,0
2017-05-04T01:51:46.505Z,0
2017-05-04T01:52:47.774Z,0
2017-05-04T01:53:48.995Z,0
2017-05-04T01:54:50.245Z,0
2017-05-04T01:55:51.488Z,0
2017-05-04T01:56:52.742Z,0
2017-05-04T01:57:53.986Z,0
2017-05-04T01:58:55.209Z,0
2017-05-04T01:59:56.460Z,0
2017-05-04T02:00:57.690Z,0
2017-05-04T02:01:58.935Z,0
2017-05-04T02:03:00.167Z,0
2017-05-04T02:04:01.467Z,0
2017-05-04T02:05:02.736Z,0
2017-05-04T02:06:03.984Z,0
2017-05-04T02:07:05.215Z,0
2017-05-04T02:08:06.471Z,0
2017-05-04T02:09:07.720Z,0
2017-05-04T02:10:09.119Z,0
2017-05-04T02:11:10.315Z,0
2017-05-04T02:12:11.574Z,0
2017-05-04T02:13:12.806Z,0
2017-05-04T02:14:14.039Z,0
2017-05-04T02:15:15.320Z,0
2017-05-04T02:16:16.575Z,0
2017-05-04T02:17:17.834Z,0
2017-05-04T02:18:19.076Z,0
2017-05-04T02:19:20.323Z,0
2017-05-04T02:20:21.562Z,0
2017-05-04T02:21:22.870Z,0
2017-05-04T02:22:24.252Z,0
2017-05-04T02:23:25.489Z,0
2017-05-04T02:24:26.726Z,0
2017-05-04T02:25:28.002Z,0
2017-05-04T02:26:29.241Z,0
2017-05-04T02:27:30.456Z,0
2017-05-04T02:28:31.712Z,0
2017-05-04T02:29:32.944Z,0
2017-05-04T02:30:34.202Z,0
2017-05-04T02:31:35.413Z,0
2017-05-04T02:32:36.643Z,0
2017-05-04T02:33:37.931Z,0
2017-05-04T02:34:39.168Z,0
2017-05-04T02:35:40.468Z,0
2017-05-04T02:36:41.704Z,0
2017-05-04T02:37:42.936Z,0
2017-05-04T02:38:44.266Z,0
2017-05-04T02:39:45.494Z,0
2017-05-04T02:40:46.741Z,0
2017-05-04T02:41:47.982Z,0
2017-05-04T02:42:49.303Z,0
2017-05-04T02:43:50.559Z,0
2017-05-04T02:44:51.801Z,0
2017-05-04T02:45:53.056Z,0
2017-05-04T02:46:54.290Z,0
2017-05-04T02:47:55.524Z,0
2017-05-04T02:48:56.781Z,0
2017-05-04T02:49:57.995Z,0
2017-05-04T02:50:59.234Z,0
2017-05-04T02:52:00.476Z,0
2017-05-04T02:53:01.726Z,0
2017-05-04T02:54:02.990Z,0
2017-05-04T02:55:04.237Z,0
2017-05-04T02:56:05.488Z,0
2017-05-04T02:57:06.731Z,0
2017-05-04T02:58:07.975Z,0
2017-05-04T02:59:09.217Z,0
2017-05-04T03:00:10.450Z,0
2017-05-04T03:01:11.834Z,0
2017-05-04T03:02:13.081Z,0
2017-05-04T03:03:14.364Z,0
2017-05-04T03:04:15.603Z,0
2017-05-04T03:05:16.839Z,0
2017-05-04T03:06:18.083Z,0
2017-05-04T03:07:19.348Z,0
2017-05-04T03:08:20.577Z,0
2017-05-04T03:09:21.839Z,0
2017-05-04T03:10:23.096Z,0
2017-05-04T03:11:24.319Z,0
2017-05-04T03:12:25.569Z,0
2017-05-04T03:13:26.806Z,0
2017-05-04T03:14:28.048Z,0
2017-05-04T03:15:29.442Z,0
2017-05-04T03:16:30.673Z,0
2017-05-04T03:17:31.903Z,0
2017-05-04T03:18:33.143Z,0
2017-05-04T03:19:34.406Z,0
2017-05-04T03:20:35.687Z,0
2017-05-04T03:21:36.906Z,0
2017-05-04T03:22:38.136Z,0
2017-05-04T03:23:39.374Z,0
2017-05-04T03:24:40.606Z,0
2017-05-04T03:25:41.972Z,0
2017-05-04T03:26:43.357Z,0
2017-05-04T03:27:44.597Z,0
2017-05-04T03:28:45.833Z,0
2017-05-04T03:29:47.068Z,0
2017-05-04T03:30:48.339Z,0
2017-05-04T03:31:49.569Z,0
2017-05-04T03:32:50.787Z,0
2017-05-04T03:33:52.044Z,0
2017-05-04T03:34:53.284Z,0
2017-05-04T03:35:54.537Z,0
2017-05-04T03:36:55.802Z,0
2017-05-04T03:37:57.100Z,0
2017-05-04T03:38:58.355Z,0
2017-05-04T03:39:59.593Z,0
2017-05-04T03:41:00.844Z,0
2017-05-04T03:42:02.090Z,0
2017-05-04T03:43:03.363Z,0
2017-05-04T03:44:04.601Z,0
2017-05-04T03:45:05.836Z,0
2017-05-04T03:46:07.073Z,0
2017-05-04T03:47:08.391Z,0
2017-05-04T03:48:09.692Z,0
2017-05-04T03:49:10.930Z,0
2017-05-04T03:50:12.215Z,0
2017-05-04T03:51:13.518Z,0
2017-05-04T03:52:14.768Z,0
2017-05-04T03:53:15.998Z,0
2017-05-04T03:54:17.242Z,0
2017-05-04T03:55:18.561Z,0
2017-05-04T03:56:19.953Z,0
2017-05-04T03:57:21.099Z,5
2017-05-04T03:58:22.435Z,5
2017-05-04T03:59:23.696Z,5
2017-05-04T04:00:24.933Z,5
2017-05-04T04:01:26.170Z,5
2017-05-04T04:02:27.410Z,5
2017-05-04T04:03:28.656Z,5
2017-05-04T04:04:29.943Z,5
2017-05-04T04:05:31.478Z,10
2017-05-04T04:06:32.689Z,10
2017-05-04T04:07:33.926Z,10
2017-05-04T04:08:35.179Z,10
2017-05-04T04:09:36.618Z,15
2017-05-04T04:10:37.891Z,15
2017-05-04T04:11:39.148Z,20
2017-05-04T04:12:40.390Z,20
2017-05-04T04:13:41.630Z,25
2017-05-04T04:14:43.002Z,30
2017-05-04T04:15:44.244Z,35
2017-05-04T04:16:45.499Z,35
2017-05-04T04:17:46.838Z,35
2017-05-04T04:18:48.085Z,35
2017-05-04T04:19:49.320Z,35
2017-05-04T04:20:50.583Z,35
2017-05-04T04:21:51.805Z,35
2017-05-04T04:22:53.046Z,35
2017-05-04T04:23:54.336Z,40
2017-05-04T04:24:55.606Z,40
2017-05-04T04:25:56.833Z,40
2017-05-04T04:26:58.072Z,40
2017-05-04T04:27:59.337Z,45
2017-05-04T04:29:00.598Z,45
2017-05-04T04:30:01.980Z,50
2017-05-04T04:31:03.237Z,60
2017-05-04T04:32:04.439Z,75
2017-05-04T04:33:05.688Z,85
2017-05-04T04:34:06.934Z,85
2017-05-04T04:35:08.181Z,90
2017-05-04T04:36:09.631Z,100
2017-05-04T04:37:10.834Z,100
2017-05-04T04:38:12.110Z,100
2017-05-04T04:39:13.341Z,95
2017-05-04T04:40:14.549Z,95
2017-05-04T04:41:15.797Z,90
2017-05-04T04:42:17.051Z,90
2017-05-04T04:43:18.344Z,85
2017-05-04T04:44:19.565Z,80
2017-05-04T04:45:20.840Z,70
2017-05-04T04:46:22.058Z,65
2017-05-04T04:47:23.305Z,70
2017-05-04T04:48:24.573Z,70
2017-05-04T04:49:25.814Z,65
2017-05-04T04:50:27.051Z,65
2017-05-04T04:51:28.351Z,65
2017-05-04T04:52:29.846Z,60
2017-05-04T04:53:31.078Z,60
2017-05-04T04:54:32.311Z,60
2017-05-04T04:55:33.551Z,55
2017-05-04T04:56:34.806Z,60
2017-05-04T04:57:36.051Z,65
2017-05-04T04:58:37.297Z,70
2017-05-04T04:59:38.642Z,75
2017-05-04T05:00:39.926Z,90
2017-05-04T05:01:41.161Z,105
2017-05-04T05:02:42.400Z,115
2017-05-04T05:03:43.644Z,125
2017-05-04T05:04:44.869Z,125
2017-05-04T05:05:46.107Z,130
2017-05-04T05:06:47.354Z,135
2017-05-04T05:07:48.595Z,130
2017-05-04T05:08:49.832Z,130
2017-05-04T05:09:51.067Z,130
2017-05-04T05:10:52.314Z,130
2017-05-04T05:11:53.557Z,130
2017-05-04T05:12:54.930Z,140
2017-05-04T05:13:56.181Z,135
2017-05-04T05:14:57.420Z,130
2017-05-04T05:15:58.649Z,135
2017-05-04T05:17:00.033Z,135
2017-05-04T05:18:01.247Z,140
2017-05-04T05:19:02.526Z,145
2017-05-04T05:20:03.825Z,155
2017-05-04T05:21:05.118Z,150
2017-05-04T05:22:06.362Z,150
2017-05-04T05:23:07.596Z,155
2017-05-04T05:24:08.840Z,160
2017-05-04T05:25:10.086Z,170
2017-05-04T05:26:11.325Z,175
2017-05-04T05:27:12.560Z,175
2017-05-04T05:28:13.802Z,175
2017-05-04T05:29:15.038Z,180
2017-05-04T05:30:16.409Z,190
2017-05-04T05:31:17.722Z,195
2017-05-04T05:32:18.957Z,200
2017-05-04T05:33:20.205Z,210
2017-05-04T05:34:21.483Z,210
2017-05-04T05:35:22.698Z,205
2017-05-04T05:36:23.972Z,210
2017-05-04T05:37:25.401Z,210
2017-05-04T05:38:26.572Z,220
2017-05-04T05:39:27.884Z,230
2017-05-04T05:40:29.135Z,245
2017-05-04T05:41:30.367Z,250
2017-05-04T05:42:31.712Z,260
2017-05-04T05:43:32.886Z,270
2017-05-04T05:44:34.154Z,270
2017-05-04T05:45:35.374Z,275
2017-05-04T05:46:36.772Z,280
2017-05-04T05:47:38.021Z,290
2017-05-04T05:48:39.242Z,310
2017-05-04T05:49:40.528Z,320
2017-05-04T05:50:41.774Z,345
2017-05-04T05:51:43.011Z,370
2017-05-04T05:52:44.248Z,385
2017-05-04T05:53:45.481Z,415
2017-05-04T05:54:46.734Z,430
2017-05-04T05:55:48.054Z,460
2017-05-04T05:56:49.434Z,580
2017-05-04T05:57:50.664Z,660
2017-05-04T05:58:51.902Z,540
2017-05-04T05:59:53.143Z,655
2017-05-04T06:00:54.426Z,655
2017-05-04T06:01:55.674Z,510
2017-05-04T06:02:56.908Z,655
2017-05-04T06:03:58.247Z,445
2017-05-04T06:04:59.495Z,430
2017-05-04T06:06:00.730Z,415
2017-05-04T06:07:02.031Z,405
2017-05-04T06:08:03.257Z,400
2017-05-04T06:09:04.565Z,415
2017-05-04T06:10:05.998Z,400
2017-05-04T06:11:07.226Z,400
2017-05-04T06:12:08.524Z,400
2017-05-04T06:13:09.821Z,405
2017-05-04T06:14:11.020Z,400
2017-05-04T06:15:12.373Z,400
2017-05-04T06:16:13.620Z,400
2017-05-04T06:17:14.860Z,400
2017-05-04T06:18:16.114Z,395
2017-05-04T06:19:17.353Z,385
2017-05-04T06:20:18.615Z,380
2017-05-04T06:21:19.859Z,375
2017-05-04T06:22:21.112Z,370
2017-05-04T06:23:22.410Z,360
2017-05-04T06:24:23.643Z,355
2017-05-04T06:25:24.879Z,345
2017-05-04T06:26:26.142Z,330
2017-05-04T06:27:27.383Z,320
2017-05-04T06:28:28.648Z,320
2017-05-04T06:29:29.899Z,315
2017-05-04T06:30:31.156Z,315
2017-05-04T06:31:32.404Z,320
2017-05-04T06:32:33.753Z,325
2017-05-04T06:33:34.975Z,330
2017-05-04T06:34:36.228Z,330
2017-05-04T06:35:37.477Z,350
2017-05-04T06:36:38.744Z,360
2017-05-04T06:37:39.980Z,355
2017-05-04T06:38:41.208Z,345
2017-05-04T06:39:42.467Z,355
2017-05-04T06:40:43.672Z,360
2017-05-04T06:41:44.963Z,370
2017-05-04T06:42:46.278Z,385
2017-05-04T06:43:47.516Z,385
2017-05-04T06:44:48.800Z,390
2017-05-04T06:45:50.066Z,405
2017-05-04T06:46:51.409Z,410
2017-05-04T06:47:52.670Z,410
2017-05-04T06:48:53.884Z,405
2017-05-04T06:49:55.123Z,400
2017-05-04T06:50:56.501Z,395
2017-05-04T06:51:57.778Z,390
2017-05-04T06:52:59.002Z,385
2017-05-04T06:54:00.260Z,390
2017-05-04T06:55:01.503Z,385
2017-05-04T06:56:02.744Z,375
2017-05-04T06:57:03.989Z,365
2017-05-04T06:58:05.226Z,365
2017-05-04T06:59:06.475Z,375
2017-05-04T07:00:07.739Z,390
2017-05-04T07:01:08.965Z,405
2017-05-04T07:02:10.226Z,405
2017-05-04T07:03:11.461Z,395
2017-05-04T07:04:12.720Z,390
2017-05-04T07:05:14.081Z,400
2017-05-04T07:06:15.339Z,405
2017-05-04T07:07:16.584Z,415
2017-05-04T07:08:17.812Z,430
2017-05-04T07:09:19.053Z,445
2017-05-04T07:10:20.312Z,465
2017-05-04T07:11:21.659Z,485
2017-05-04T07:12:22.938Z,510
2017-05-04T07:13:24.277Z,545
2017-05-04T07:14:25.513Z,595
2017-05-04T07:15:26.782Z,640
2017-05-04T07:16:28.046Z,700
2017-05-04T07:17:29.384Z,745
2017-05-04T07:18:30.683Z,790
2017-05-04T07:19:31.943Z,835
2017-05-04T07:20:33.167Z,855
2017-05-04T07:21:34.411Z,795
2017-05-04T07:22:35.695Z,740
2017-05-04T07:23:37.030Z,700
2017-05-04T07:24:38.323Z,635
2017-05-04T07:25:39.554Z,560
2017-05-04T07:26:40.806Z,490
2017-05-04T07:27:42.048Z,430
2017-05-04T07:28:43.309Z,410
2017-05-04T07:29:44.611Z,405
2017-05-04T07:30:45.892Z,415
2017-05-04T07:31:47.138Z,495
2017-05-04T07:32:48.398Z,605
2017-05-04T07:33:49.654Z,690
2017-05-04T07:34:50.999Z,715
2017-05-04T07:35:52.285Z,735
2017-05-04T07:36:53.485Z,730
2017-05-04T07:37:54.842Z,715
2017-05-04T07:38:56.086Z,730
2017-05-04T07:39:57.340Z,815
2017-05-04T07:40:58.579Z,915
2017-05-04T07:41:59.842Z,980
2017-05-04T07:43:01.091Z,1050
2017-05-04T07:44:02.418Z,1150
2017-05-04T07:45:03.665Z,1330
2017-05-04T07:46:04.918Z,1100
2017-05-04T07:47:06.160Z,1035
2017-05-04T07:48:07.409Z,975
2017-05-04T07:49:08.729Z,965
2017-05-04T07:50:09.976Z,1015
2017-05-04T07:51:11.213Z,1050
2017-05-04T07:52:12.452Z,1060
2017-05-04T07:53:13.705Z,1120
2017-05-04T07:54:15.004Z,1200
2017-05-04T07:55:16.252Z,1290
2017-05-04T07:56:17.498Z,1565
2017-05-04T07:57:18.736Z,1275
2017-05-04T07:58:20.021Z,1375
2017-05-04T07:59:21.245Z,1355
2017-05-04T08:00:22.528Z,1410
2017-05-04T08:01:23.786Z,1620
2017-05-04T08:02:25.043Z,1350
2017-05-04T08:03:26.304Z,1375
2017-05-04T08:04:27.537Z,1420
2017-05-04T08:05:28.780Z,1505
2017-05-04T08:06:30.030Z,2225
2017-05-04T08:07:31.289Z,2515
2017-05-04T08:08:32.665Z,1980
2017-05-04T08:09:33.906Z,2625
2017-05-04T08:10:35.190Z,1655
2017-05-04T08:11:36.433Z,1265
2017-05-04T08:12:37.801Z,1025
2017-05-04T08:13:39.082Z,980
2017-05-04T08:14:40.305Z,1030
2017-05-04T08:15:41.552Z,1095
2017-05-04T08:16:42.792Z,1315
2017-05-04T08:17:44.116Z,1725
2017-05-04T08:18:45.347Z,1635
2017-05-04T08:19:46.688Z,1535
2017-05-04T08:20:47.937Z,1575
2017-05-04T08:21:49.186Z,1805
2017-05-04T08:22:50.446Z,2235
2017-05-04T08:23:51.714Z,1490
2017-05-04T08:24:53.130Z,2575
2017-05-04T08:25:54.384Z,2715
2017-05-04T08:26:55.671Z,2385
2017-05-04T08:27:56.920Z,2410
2017-05-04T08:28:58.243Z,2435
2017-05-04T08:29:59.472Z,2390
2017-05-04T08:31:00.778Z,2600
2017-05-04T08:32:02.102Z,2485
2017-05-04T08:33:03.351Z,1455
2017-05-04T08:34:04.604Z,975
2017-05-04T08:35:05.873Z,840
2017-05-04T08:36:07.112Z,850
2017-05-04T08:37:08.390Z,970
2017-05-04T08:38:09.619Z,1140
2017-05-04T08:39:10.867Z,1010
2017-05-04T08:40:12.246Z,855
2017-05-04T08:41:13.483Z,1045
2017-05-04T08:42:14.731Z,1105
2017-05-04T08:43:15.978Z,2045
2017-05-04T08:44:17.253Z,1100
2017-05-04T08:45:18.567Z,915
2017-05-04T08:46:19.814Z,865
2017-05-04T08:47:21.067Z,750
2017-05-04T08:48:22.362Z,795
2017-05-04T08:49:23.624Z,875
2017-05-04T08:50:24.871Z,1400
2017-05-04T08:51:26.124Z,1460
2017-05-04T08:52:27.368Z,1045
2017-05-04T08:53:28.637Z,1015
2017-05-04T08:54:29.865Z,1015
2017-05-04T08:55:31.110Z,850
2017-05-04T08:56:32.624Z,880
2017-05-04T08:57:33.846Z,1070
2017-05-04T08:58:35.107Z,1190
2017-05-04T08:59:36.435Z,1635
2017-05-04T09:00:37.655Z,1365
2017-05-04T09:01:38.932Z,1200
2017-05-04T09:02:40.268Z,1095
2017-05-04T09:03:41.482Z,1010
2017-05-04T09:04:42.739Z,1040
2017-05-04T09:05:43.988Z,1040
2017-05-04T09:06:45.242Z,1000
2017-05-04T09:07:46.482Z,1120
2017-05-04T09:08:47.773Z,1225
2017-05-04T09:09:49.025Z,1255
2017-05-04T09:10:50.355Z,1345
2017-05-04T09:11:51.598Z,1275
2017-05-04T09:12:52.843Z,1880
2017-05-04T09:13:54.186Z,1670
2017-05-04T09:14:55.469Z,1755
2017-05-04T09:15:56.715Z,2130
2017-05-04T09:16:57.981Z,1830
2017-05-04T09:17:59.254Z,2570
2017-05-04T09:19:00.473Z,2120
2017-05-04T09:20:01.755Z,2715
2017-05-04T09:21:03.069Z,2865
2017-05-04T09:22:04.318Z,2910
2017-05-04T09:23:05.564Z,1935
2017-05-04T09:24:06.825Z,1305
2017-05-04T09:25:08.078Z,1115
2017-05-04T09:26:09.361Z,1155
2017-05-04T09:27:10.593Z,1030
2017-05-04T09:28:11.936Z,2190
2017-05-04T09:29:13.170Z,2870
2017-05-04T09:30:14.469Z,2685
2017-05-04T09:31:15.723Z,1640
2017-05-04T09:32:16.978Z,1140
2017-05-04T09:33:18.269Z,1425
2017-05-04T09:34:19.540Z,950
2017-05-04T09:35:20.788Z,910
2017-05-04T09:36:22.064Z,980
2017-05-04T09:37:23.352Z,1020
2017-05-04T09:38:24.583Z,865
2017-05-04T09:39:25.855Z,765
2017-05-04T09:40:27.127Z,785
2017-05-04T09:41:28.408Z,830
2017-05-04T09:42:29.646Z,760
2017-05-04T09:43:30.894Z,735
2017-05-04T09:44:32.139Z,790
2017-05-04T09:45:33.406Z,815
2017-05-04T09:46:34.644Z,905
2017-05-04T09:47:35.975Z,1020
2017-05-04T09:48:37.224Z,1070
2017-05-04T09:49:38.472Z,1105
2017-05-04T09:50:39.730Z,1145
2017-05-04T09:51:40.994Z,995
2017-05-04T09:52:42.249Z,805
2017-05-04T09:53:43.500Z,770
2017-05-04T09:54:44.775Z,745
2017-05-04T09:55:46.024Z,675
2017-05-04T09:56:47.277Z,725
2017-05-04T09:57:48.525Z,780
2017-05-04T09:58:49.937Z,835
2017-05-04T09:59:51.201Z,845
2017-05-04T10:00:52.430Z,1090
2017-05-04T10:01:53.674Z,1515
2017-05-04T10:02:54.919Z,795
2017-05-04T10:03:56.189Z,820
2017-05-04T10:04:57.462Z,785
2017-05-04T10:05:58.721Z,830
2017-05-04T10:07:00.010Z,1815
2017-05-04T10:08:01.254Z,1385
2017-05-04T10:09:02.598Z,890
2017-05-04T10:10:03.887Z,745
2017-05-04T10:11:05.234Z,805
2017-05-04T10:12:06.491Z,1775
2017-05-04T10:13:07.731Z,1090
2017-05-04T10:14:08.976Z,810
2017-05-04T10:15:10.214Z,835
2017-05-04T10:16:11.485Z,900
2017-05-04T10:17:12.892Z,725
2017-05-04T10:18:14.139Z,755
2017-05-04T10:19:15.386Z,705
2017-05-04T10:20:16.641Z,730
2017-05-04T10:21:17.971Z,915
2017-05-04T10:22:19.225Z,1360
2017-05-04T10:23:20.470Z,835
2017-05-04T10:24:21.717Z,830
2017-05-04T10:25:22.970Z,630
2017-05-04T10:26:24.229Z,595
2017-05-04T10:27:25.440Z,650
2017-05-04T10:28:26.688Z,705
2017-05-04T10:29:28.048Z,700
2017-05-04T10:30:29.289Z,655
2017-05-04T10:31:30.545Z,725
2017-05-04T10:32:31.799Z,895
2017-05-04T10:33:33.033Z,845
2017-05-04T10:34:34.320Z,800
2017-05-04T10:35:35.567Z,780
2017-05-04T10:36:36.827Z,750
2017-05-04T10:37:38.058Z,760
2017-05-04T10:38:39.318Z,775
2017-05-04T10:39:40.569Z,740
2017-05-04T10:40:41.895Z,690
2017-05-04T10:41:43.190Z,630
2017-05-04T10:42:44.428Z,615
2017-05-04T10:43:45.671Z,650
2017-05-04T10:44:46.942Z,660
2017-05-04T10:45:48.224Z,705
2017-05-04T10:46:49.483Z,740
2017-05-04T10:47:51.009Z,695
2017-05-04T10:48:52.280Z,655
2017-05-04T10:49:53.561Z,625
2017-05-04T10:50:54.805Z,590
2017-05-04T10:51:56.057Z,500
2017-05-04T10:52:57.301Z,515
2017-05-04T10:53:58.555Z,595
2017-05-04T10:54:59.808Z,610
2017-05-04T10:56:01.057Z,615
2017-05-04T10:57:02.394Z,635
2017-05-04T10:58:03.634Z,580
2017-05-04T10:59:04.882Z,520
2017-05-04T11:00:06.228Z,460
2017-05-04T11:01:07.468Z,440
2017-05-04T11:02:08.739Z,410
2017-05-04T11:03:09.986Z,445
2017-05-04T11:04:11.229Z,455
2017-05-04T11:05:12.506Z,440
2017-05-04T11:06:13.748Z,455
2017-05-04T11:07:15.076Z,470
2017-05-04T11:08:16.329Z,505
2017-05-04T11:09:17.566Z,530
2017-05-04T11:10:18.818Z,545
2017-05-04T11:11:20.071Z,560
2017-05-04T11:12:21.313Z,625
2017-05-04T11:13:22.549Z,720
2017-05-04T11:14:23.782Z,785
2017-05-04T11:15:25.033Z,830
2017-05-04T11:16:26.404Z,860
2017-05-04T11:17:27.753Z,765
2017-05-04T11:18:29.007Z,660
2017-05-04T11:19:30.437Z,650
2017-05-04T11:20:31.684Z,575
2017-05-04T11:21:32.936Z,475
2017-05-04T11:22:34.180Z,440
2017-05-04T11:23:35.545Z,425
2017-05-04T11:24:36.798Z,420
2017-05-04T11:25:38.080Z,385
2017-05-04T11:26:39.348Z,330
2017-05-04T11:27:40.597Z,325
2017-05-04T11:28:41.940Z,370
2017-05-04T11:29:43.189Z,440
2017-05-04T11:30:44.442Z,525
2017-05-04T11:31:45.667Z,600
2017-05-04T11:32:46.894Z,670
2017-05-04T11:33:48.196Z,670
2017-05-04T11:34:49.439Z,630
2017-05-04T11:35:50.780Z,620
2017-05-04T11:36:52.153Z,660
2017-05-04T11:37:53.412Z,665
2017-05-04T11:38:54.731Z,660
2017-05-04T11:39:56.069Z,665
2017-05-04T11:40:57.310Z,630
2017-05-04T11:41:58.570Z,565
2017-05-04T11:42:59.813Z,535
2017-05-04T11:44:01.067Z,470
2017-05-04T11:45:02.328Z,445
2017-05-04T11:46:03.561Z,445
2017-05-04T11:47:04.868Z,415
2017-05-04T11:48:06.160Z,400
2017-05-04T11:49:07.398Z,420
2017-05-04T11:50:08.681Z,380
2017-05-04T11:51:09.943Z,370
2017-05-04T11:52:11.184Z,355
2017-05-04T11:53:12.435Z,280
2017-05-04T11:54:13.674Z,275
2017-05-04T11:55:14.984Z,275
2017-05-04T11:56:16.250Z,265
2017-05-04T11:57:17.491Z,290
2017-05-04T11:58:18.732Z,295
2017-05-04T11:59:20.020Z,280
2017-05-04T12:00:21.266Z,285
2017-05-04T12:01:22.569Z,275
2017-05-04T12:02:23.861Z,255
2017-05-04T12:03:25.097Z,245
2017-05-04T16:54:50.285Z,70
2017-05-04T16:55:51.641Z,65
2017-05-04T16:56:52.922Z,60
2017-05-04T16:57:54.157Z,60
2017-05-04T16:58:55.406Z,55
2017-05-04T16:59:56.656Z,50
2017-05-04T17:00:57.938Z,45
2017-05-04T17:01:59.195Z,40
2017-05-04T17:03:00.463Z,35
2017-05-04T17:04:01.728Z,30
2017-05-04T17:05:02.947Z,30
2017-05-04T17:06:04.333Z,30
2017-05-04T17:07:05.565Z,30
2017-05-04T17:08:06.855Z,30
2017-05-04T17:09:08.095Z,30
2017-05-04T17:10:09.361Z,30
2017-05-04T17:11:10.713Z,30
2017-05-04T17:12:11.983Z,30
2017-05-04T17:13:13.295Z,30
2017-05-04T17:14:14.650Z,40
2017-05-04T17:15:15.870Z,40
2017-05-04T17:16:17.144Z,45
2017-05-04T17:17:18.472Z,55
2017-05-04T17:18:19.733Z,55
2017-05-04T17:19:21.102Z,60
2017-05-04T17:20:22.367Z,55
2017-05-04T17:21:23.663Z,50
2017-05-04T17:22:24.906Z,50
2017-05-04T17:23:26.285Z,50
2017-05-04T17:24:27.519Z,50
2017-05-04T17:25:28.855Z,45
2017-05-04T17:26:30.066Z,45
2017-05-04T17:27:31.332Z,40
2017-05-04T17:28:32.690Z,40
2017-05-04T17:29:34.277Z,35
2017-05-04T17:30:35.440Z,35
2017-05-04T17:31:36.677Z,40
2017-05-04T17:32:37.917Z,45
2017-05-04T17:33:39.165Z,45
2017-05-04T17:34:40.516Z,35
2017-05-04T17:35:41.869Z,30
2017-05-04T17:36:43.118Z,25
2017-05-04T17:37:44.371Z,25
2017-05-04T17:38:45.609Z,20
2017-05-04T17:39:46.842Z,15
2017-05-04T17:40:48.108Z,15
2017-05-04T17:41:49.319Z,20
2017-05-04T17:42:50.590Z,15
2017-05-04T17:43:51.816Z,15
2017-05-04T17:44:53.066Z,15
2017-05-04T17:45:54.353Z,10
2017-05-04T17:46:55.573Z,10
2017-05-04T17:47:56.908Z,10
2017-05-04T17:48:58.170Z,10
2017-05-04T17:49:59.675Z,10
2017-05-04T17:51:00.924Z,10
2017-05-04T17:52:02.165Z,10
2017-05-04T17:53:03.411Z,10
2017-05-04T17:54:04.713Z,10
2017-05-04T17:55:06.070Z,10
2017-05-04T17:56:07.330Z,10
2017-05-04T17:57:08.643Z,10
2017-05-04T17:58:09.828Z,10
2017-05-04T17:59:11.086Z,10
2017-05-04T18:00:12.484Z,10
2017-05-04T18:01:13.769Z,10
2017-05-04T18:02:15.046Z,10
2017-05-04T18:03:16.295Z,10
2017-05-04T18:04:17.546Z,15
2017-05-04T18:05:18.801Z,15
2017-05-04T18:06:20.062Z,10
2017-05-04T18:07:21.419Z,15
2017-05-04T18:08:22.648Z,10
2017-05-04T18:09:23.924Z,10
2017-05-04T18:10:25.194Z,10
2017-05-04T18:11:26.456Z,10
2017-05-04T18:12:27.697Z,10
2017-05-04T18:13:28.945Z,10
2017-05-04T18:14:30.214Z,10
2017-05-04T18:15:31.458Z,10
2017-05-04T18:16:32.765Z,5
2017-05-04T18:17:34.055Z,5
2017-05-04T18:18:35.397Z,10
2017-05-04T18:19:36.642Z,10
2017-05-04T18:20:37.918Z,10
2017-05-04T18:21:39.167Z,10
2017-05-04T18:22:40.497Z,5
2017-05-04T18:23:41.796Z,5
2017-05-04T18:24:43.116Z,5
2017-05-04T18:25:44.457Z,5
2017-05-04T18:26:45.745Z,5
2017-05-04T18:27:47.003Z,5
2017-05-04T18:28:48.338Z,5
2017-05-04T18:29:49.534Z,5
2017-05-04T18:30:50.829Z,5
2017-05-04T18:31:52.046Z,5
2017-05-04T18:32:53.315Z,5
2017-05-04T18:33:54.653Z,5
2017-05-04T18:34:55.870Z,5
2017-05-04T18:35:57.124Z,5
2017-05-04T18:36:58.359Z,5
2017-05-04T18:37:59.603Z,5
2017-05-04T18:39:00.869Z,5
2017-05-04T18:40:02.140Z,5
2017-05-04T18:41:03.380Z,5
2017-05-04T18:42:04.696Z,5
2017-05-04T18:43:05.950Z,0
2017-05-04T18:44:07.264Z,0
2017-05-04T18:45:08.527Z,0
2017-05-04T18:46:09.795Z,0
2017-05-04T18:47:11.032Z,0
2017-05-04T18:48:12.299Z,0
2017-05-04T18:49:13.563Z,0
2017-05-04T18:50:14.803Z,0
2017-05-04T18:51:16.058Z,0
2017-05-04T18:52:17.340Z,0
2017-05-04T18:53:18.670Z,0
2017-05-04T18:54:19.931Z,0
2017-05-04T18:55:21.283Z,0
2017-05-04T18:56:22.538Z,0
2017-05-04T18:57:23.783Z,0
2017-05-04T18:58:25.077Z,0
2017-05-04T18:59:26.504Z,0
2017-05-04T19:00:27.685Z,0
2017-05-04T19:01:28.994Z,0
2017-05-04T19:02:30.226Z,0
2017-05-04T19:03:31.492Z,0
2017-05-04T19:04:32.760Z,0
2017-05-04T19:05:34.008Z,0
2017-05-04T19:06:35.357Z,0
2017-05-04T19:07:36.580Z,0
2017-05-04T19:08:37.886Z,0
2017-05-04T19:09:39.261Z,0
2017-05-04T19:10:40.547Z,0
2017-05-04T19:11:41.861Z,0
2017-05-04T19:12:43.087Z,0
2017-05-04T19:13:44.404Z,0
2017-05-04T19:14:45.687Z,0
2017-05-04T19:15:47.083Z,0